Time;durP1;ratioP1;P1;durP2;ratioP2;P2;SDS_P1;SDS_P2;PMS_P1;PMS_P2;Temp;Humidity;BMP_temperature;BMP_pressure;BME280_temperature;BME280_humidity;BME280_pressure;Samples;Min_cycle;Max_cycle;Signal;HPM_P1;HPM_P2
2023/04/17 00:01:34;;;;;;;;;3.00;3.00;;;;;;;;4979708;28;45372;-81
2023/04/17 00:04:00;;;;;;;;;4.00;4.00;;;;;;;;4979161;28;45508;-81
2023/04/17 00:06:26;;;;;;;;;3.00;3.00;;;;;;;;4978100;28;45704;-81
2023/04/17 00:08:51;;;;;;;;;2.50;2.50;;;;;;;;4980040;28;45399;-81
2023/04/17 00:11:16;;;;;;;;;4.00;3.00;;;;;;;;4978961;28;45398;-81
2023/04/17 00:13:42;;;;;;;;;4.00;3.00;;;;;;;;4978700;28;45531;-81
2023/04/17 00:16:10;;;;;;;;;3.25;3.25;;;;;;;;4978375;28;45675;-81
2023/04/17 00:18:35;;;;;;;;;4.50;3.50;;;;;;;;4978610;28;45441;-81
2023/04/17 00:21:00;;;;;;;;;5.00;5.00;;;;;;;;4977713;28;45495;-81
2023/04/17 00:23:26;;;;;;;;;3.50;3.50;;;;;;;;4978852;28;45405;-81
2023/04/17 00:25:51;;;;;;;;;4.00;4.00;;;;;;;;4978715;28;46622;-81
2023/04/17 00:28:16;;;;;;;;;3.00;3.00;;;;;;;;4978705;28;45552;-81
2023/04/17 00:30:41;;;;;;;;;2.75;2.75;;;;;;;;4977853;28;45242;-81
2023/04/17 00:33:06;;;;;;;;;4.25;4.00;;;;;;;;4978462;28;45243;-81
2023/04/17 00:35:32;;;;;;;;;3.00;3.00;;;;;;;;4978225;28;45487;-81
2023/04/17 00:37:57;;;;;;;;;3.50;2.00;;;;;;;;4978279;28;45325;-81
2023/04/17 00:40:22;;;;;;;;;3.50;3.50;;;;;;;;4978458;28;45370;-82
2023/04/17 00:42:51;;;;;;;;;3.00;3.00;;;;;;;;4977992;28;45294;-81
2023/04/17 00:45:17;;;;;;;;;2.00;2.00;;;;;;;;4978270;28;45510;-81
2023/04/17 00:47:42;;;;;;;;;5.00;5.00;;;;;;;;4976596;28;45472;-82
2023/04/17 00:50:08;;;;;;;;;5.75;4.00;;;;;;;;4977665;28;45438;-81
2023/04/17 00:52:33;;;;;;;;;4.75;4.75;;;;;;;;4977085;28;45603;-81
2023/04/17 00:54:59;;;;;;;;;5.00;5.00;;;;;;;;4987671;28;45496;-81
2023/04/17 00:57:25;;;;;;;;;2.50;2.50;;;;;;;;4977202;28;45481;-81
2023/04/17 00:59:50;;;;;;;;;7.25;4.00;;;;;;;;4977776;28;45511;-81
2023/04/17 01:02:16;;;;;;;;;3.00;3.00;;;;;;;;4977796;28;45377;-82
2023/04/17 01:04:41;;;;;;;;;4.00;3.00;;;;;;;;4977980;28;46678;-81
2023/04/17 01:07:07;;;;;;;;;4.00;4.00;;;;;;;;4977413;28;45371;-81
2023/04/17 01:09:33;;;;;;;;;4.50;3.25;;;;;;;;4977664;28;45373;-81
2023/04/17 01:12:17;;;;;;;;;5.75;3.50;;;;;;;;4977516;28;45428;-81
2023/04/17 01:14:42;;;;;;;;;4.25;3.50;;;;;;;;4977705;28;46663;-81
2023/04/17 01:17:09;;;;;;;;;4.75;3.00;;;;;;;;4977372;28;45373;-81
2023/04/17 01:19:34;;;;;;;;;8.00;4.00;;;;;;;;4977559;28;45302;-81
2023/04/17 01:21:59;;;;;;;;;2.00;2.00;;;;;;;;4977230;28;45415;-81
2023/04/17 01:24:24;;;;;;;;;3.25;3.25;;;;;;;;4977383;28;46286;-81
2023/04/17 01:26:50;;;;;;;;;3.75;3.75;;;;;;;;4977638;28;45558;-81
2023/04/17 01:29:15;;;;;;;;;4.00;3.50;;;;;;;;4977276;28;45392;-81
2023/04/17 01:31:40;;;;;;;;;2.25;2.25;;;;;;;;4977697;28;45764;-81
2023/04/17 01:34:05;;;;;;;;;4.00;3.25;;;;;;;;4976103;28;45443;-81
2023/04/17 01:36:30;;;;;;;;;3.25;3.25;;;;;;;;4977490;28;45401;-81
2023/04/17 01:38:56;;;;;;;;;5.50;4.75;;;;;;;;4977585;28;45353;-81
2023/04/17 01:41:21;;;;;;;;;4.75;4.50;;;;;;;;4977392;28;45373;-82
2023/04/17 01:43:46;;;;;;;;;3.50;3.00;;;;;;;;4977401;28;45397;-81
2023/04/17 01:46:12;;;;;;;;;4.00;4.00;;;;;;;;4976909;28;45449;-81
2023/04/17 01:48:37;;;;;;;;;4.25;4.25;;;;;;;;4977436;28;45365;-81
2023/04/17 01:51:03;;;;;;;;;4.75;4.25;;;;;;;;4976695;28;45382;-81
2023/04/17 01:53:31;;;;;;;;;5.50;5.50;;;;;;;;4977292;28;45809;-81
2023/04/17 01:55:56;;;;;;;;;4.00;4.00;;;;;;;;4977333;28;45320;-81
2023/04/17 01:58:21;;;;;;;;;11.00;8.75;;;;;;;;4975982;28;45316;-80
2023/04/17 02:00:48;;;;;;;;;4.25;4.25;;;;;;;;4977207;28;45340;-82
2023/04/17 02:03:13;;;;;;;;;4.00;4.00;;;;;;;;4977120;28;46166;-82
2023/04/17 02:05:38;;;;;;;;;4.00;4.00;;;;;;;;4977840;28;45324;-81
2023/04/17 02:08:03;;;;;;;;;4.50;4.50;;;;;;;;4977587;28;45292;-81
2023/04/17 02:10:29;;;;;;;;;7.50;5.50;;;;;;;;4977834;28;45260;-82
2023/04/17 02:12:54;;;;;;;;;7.00;5.75;;;;;;;;4976639;28;46504;-82
2023/04/17 02:15:19;;;;;;;;;5.75;4.75;;;;;;;;4976755;28;45372;-81
2023/04/17 02:17:45;;;;;;;;;7.75;7.25;;;;;;;;4960195;28;45664;-81
2023/04/17 02:20:10;;;;;;;;;6.25;5.00;;;;;;;;4979532;28;45419;-81
2023/04/17 02:22:35;;;;;;;;;10.00;7.00;;;;;;;;4983641;28;45687;-81
2023/04/17 02:25:01;;;;;;;;;7.00;4.50;;;;;;;;4996000;28;45373;-81
2023/04/17 02:27:26;;;;;;;;;9.00;5.75;;;;;;;;4996005;28;46057;-80
2023/04/17 02:29:51;;;;;;;;;5.00;5.00;;;;;;;;4992159;28;45312;-81
2023/04/17 02:32:16;;;;;;;;;7.00;6.00;;;;;;;;4979582;28;45310;-81
2023/04/17 02:34:42;;;;;;;;;9.00;8.00;;;;;;;;4976613;28;45463;-81
2023/04/17 02:37:07;;;;;;;;;8.00;7.25;;;;;;;;4977142;28;45440;-81
2023/04/17 02:39:32;;;;;;;;;10.00;8.75;;;;;;;;4977118;28;45531;-80
2023/04/17 02:41:58;;;;;;;;;9.75;9.75;;;;;;;;4976214;28;46137;-81
2023/04/17 02:44:23;;;;;;;;;5.00;4.75;;;;;;;;4976650;28;45377;-81
2023/04/17 02:46:48;;;;;;;;;10.25;8.75;;;;;;;;4976900;28;45536;-81
2023/04/17 02:49:13;;;;;;;;;9.00;9.00;;;;;;;;4976918;28;45384;-81
2023/04/17 02:51:39;;;;;;;;;8.00;7.25;;;;;;;;4976456;28;45514;-81
2023/04/17 02:54:04;;;;;;;;;7.00;5.25;;;;;;;;4976393;28;45496;-81
2023/04/17 02:56:29;;;;;;;;;9.50;8.75;;;;;;;;4976675;28;45344;-82
2023/04/17 02:58:55;;;;;;;;;5.00;5.00;;;;;;;;4975555;28;45596;-81
2023/04/17 03:01:21;;;;;;;;;9.50;8.25;;;;;;;;4976416;28;45381;-81
2023/04/17 03:03:46;;;;;;;;;7.25;7.25;;;;;;;;4976950;28;45368;-81
2023/04/17 03:06:12;;;;;;;;;8.25;8.25;;;;;;;;4975213;28;45500;-81
2023/04/17 03:08:37;;;;;;;;;9.25;8.00;;;;;;;;4976726;28;45495;-81
2023/04/17 03:11:02;;;;;;;;;8.25;7.25;;;;;;;;4976124;28;46120;-82
2023/04/17 03:13:27;;;;;;;;;8.25;5.00;;;;;;;;4974529;28;45358;-81
2023/04/17 03:15:53;;;;;;;;;7.75;7.00;;;;;;;;4975082;28;45347;-82
2023/04/17 03:18:18;;;;;;;;;7.00;7.00;;;;;;;;4974627;28;45465;-81
2023/04/17 03:20:43;;;;;;;;;11.00;9.50;;;;;;;;4975526;28;45490;-81
2023/04/17 03:23:08;;;;;;;;;11.00;9.00;;;;;;;;4978023;28;45354;-80
2023/04/17 03:25:33;;;;;;;;;10.50;10.00;;;;;;;;4978226;28;45344;-81
2023/04/17 03:27:59;;;;;;;;;8.25;7.50;;;;;;;;4978325;28;45354;-78
2023/04/17 03:30:24;;;;;;;;;11.00;8.00;;;;;;;;4977786;28;45459;-78
2023/04/17 03:32:49;;;;;;;;;9.75;9.00;;;;;;;;4976781;28;46141;-78
2023/04/17 03:35:15;;;;;;;;;14.75;10.00;;;;;;;;4978209;28;45370;-78
2023/04/17 03:37:40;;;;;;;;;9.00;9.00;;;;;;;;4978989;28;45463;-78
2023/04/17 03:40:06;;;;;;;;;8.25;8.25;;;;;;;;4978265;28;45455;-78
2023/04/17 03:42:31;;;;;;;;;12.75;10.00;;;;;;;;4978043;28;45401;-78
2023/04/17 03:44:56;;;;;;;;;7.50;6.25;;;;;;;;4978115;28;45486;-77
2023/04/17 03:47:21;;;;;;;;;9.50;8.25;;;;;;;;4978002;28;45394;-78
2023/04/17 03:49:46;;;;;;;;;7.00;7.00;;;;;;;;4977619;28;46326;-77
2023/04/17 03:52:12;;;;;;;;;9.75;8.75;;;;;;;;4977892;28;45486;-79
2023/04/17 03:54:37;;;;;;;;;7.25;7.25;;;;;;;;4975017;28;45535;-78
2023/04/17 03:57:02;;;;;;;;;9.50;9.00;;;;;;;;4958192;28;45317;-78
2023/04/17 03:59:29;;;;;;;;;9.00;9.00;;;;;;;;4957852;28;46278;-78
2023/04/17 04:01:54;;;;;;;;;11.00;11.00;;;;;;;;4968555;28;45444;-79
2023/04/17 04:04:19;;;;;;;;;14.25;13.00;;;;;;;;4977629;28;45349;-78
2023/04/17 04:06:46;;;;;;;;;10.25;10.25;;;;;;;;4977644;28;45329;-79
2023/04/17 04:09:11;;;;;;;;;10.50;10.50;;;;;;;;4976186;28;47408;-80
2023/04/17 04:11:36;;;;;;;;;8.25;8.00;;;;;;;;4976993;28;45322;-79
2023/04/17 04:14:01;;;;;;;;;12.75;10.75;;;;;;;;4977325;28;45306;-80
2023/04/17 04:16:26;;;;;;;;;11.00;10.00;;;;;;;;4977423;28;45320;-78
2023/04/17 04:18:52;;;;;;;;;12.75;11.00;;;;;;;;4975733;28;46254;-79
2023/04/17 04:21:17;;;;;;;;;17.50;14.75;;;;;;;;4977064;28;45343;-78
2023/04/17 04:23:44;;;;;;;;;16.25;13.00;;;;;;;;4977660;28;45286;-78
2023/04/17 04:26:10;;;;;;;;;10.25;9.00;;;;;;;;4977702;28;45325;-79
2023/04/17 04:28:36;;;;;;;;;14.25;10.50;;;;;;;;4977371;28;45569;-79
2023/04/17 04:31:03;;;;;;;;;16.00;13.50;;;;;;;;4976150;28;45405;-79
2023/04/17 04:33:28;;;;;;;;;11.25;11.25;;;;;;;;4977123;28;46079;-79
2023/04/17 04:35:54;;;;;;;;;14.75;13.50;;;;;;;;4980869;28;45435;-79
2023/04/17 04:38:20;;;;;;;;;10.25;9.00;;;;;;;;4979395;28;45440;-75
2023/04/17 04:40:51;;;;;;;;;13.75;11.00;;;;;;;;4977130;28;45433;-75
2023/04/17 04:43:16;;;;;;;;;13.50;13.50;;;;;;;;4977242;28;45403;-74
2023/04/17 04:45:41;;;;;;;;;8.50;8.50;;;;;;;;4976968;28;45516;-75
2023/04/17 04:48:06;;;;;;;;;11.75;9.25;;;;;;;;4976570;28;46221;-74
2023/04/17 04:50:31;;;;;;;;;16.25;13.00;;;;;;;;4976805;28;45373;-75
2023/04/17 04:52:57;;;;;;;;;16.00;14.50;;;;;;;;4976984;28;45404;-77
2023/04/17 04:55:23;;;;;;;;;16.00;14.25;;;;;;;;4984077;28;45396;-75
2023/04/17 04:57:48;;;;;;;;;16.75;15.50;;;;;;;;4983713;28;46100;-78
2023/04/17 05:00:13;;;;;;;;;13.75;13.75;;;;;;;;4996082;28;45395;-77
2023/04/17 05:02:39;;;;;;;;;18.50;12.50;;;;;;;;4996611;28;45422;-78
2023/04/17 05:05:05;;;;;;;;;19.25;18.25;;;;;;;;4992379;28;45425;-76
2023/04/17 05:07:30;;;;;;;;;18.25;18.00;;;;;;;;4976173;28;46395;-77
2023/04/17 05:09:55;;;;;;;;;19.00;17.00;;;;;;;;4975394;28;45415;-78
2023/04/17 05:12:20;;;;;;;;;20.75;18.00;;;;;;;;4976752;28;45308;-77
2023/04/17 05:14:46;;;;;;;;;18.50;16.25;;;;;;;;4976301;28;45442;-77
2023/04/17 05:17:12;;;;;;;;;20.75;20.75;;;;;;;;4975218;28;45734;-76
2023/04/17 05:19:37;;;;;;;;;22.00;17.25;;;;;;;;4976465;28;45365;-77
2023/04/17 05:22:02;;;;;;;;;22.75;20.50;;;;;;;;4976557;28;45427;-77
2023/04/17 05:24:27;;;;;;;;;25.75;20.75;;;;;;;;4976779;28;45419;-77
2023/04/17 05:26:52;;;;;;;;;22.50;22.50;;;;;;;;4976639;28;46154;-78
2023/04/17 05:29:18;;;;;;;;;30.00;26.00;;;;;;;;4976478;28;45424;-76
2023/04/17 05:31:43;;;;;;;;;24.00;21.00;;;;;;;;4977540;28;45342;-76
2023/04/17 05:34:08;;;;;;;;;28.25;22.25;;;;;;;;4977332;28;45347;-77
2023/04/17 05:36:34;;;;;;;;;23.75;20.75;;;;;;;;4979443;28;46116;-77
2023/04/17 05:38:59;;;;;;;;;22.25;21.00;;;;;;;;4988280;28;45325;-77
2023/04/17 05:41:26;;;;;;;;;21.50;20.00;;;;;;;;4986950;28;45444;-79
2023/04/17 05:43:51;;;;;;;;;23.00;23.00;;;;;;;;4977136;28;45397;-78
2023/04/17 05:46:17;;;;;;;;;25.75;24.50;;;;;;;;4975789;28;45578;-78
2023/04/17 05:48:42;;;;;;;;;24.00;23.00;;;;;;;;4975905;28;45847;-76
2023/04/17 05:51:07;;;;;;;;;25.50;24.50;;;;;;;;4976385;28;45458;-77
2023/04/17 05:53:32;;;;;;;;;23.25;20.75;;;;;;;;4974661;28;45416;-77
2023/04/17 05:55:58;;;;;;;;;30.75;26.75;;;;;;;;4975539;28;47019;-77
2023/04/17 05:58:23;;;;;;;;;27.00;24.75;;;;;;;;4975831;28;45367;-77
2023/04/17 06:00:48;;;;;;;;;29.75;24.00;;;;;;;;4976056;28;45472;-77
2023/04/17 06:03:14;;;;;;;;;31.75;26.50;;;;;;;;4976013;28;45417;-77
2023/04/17 06:05:39;;;;;;;;;31.75;29.00;;;;;;;;4975646;28;46016;-77
2023/04/17 06:08:05;;;;;;;;;14.00;14.00;;;;;;;;4975698;28;45372;-76
2023/04/17 06:10:32;;;;;;;;;22.75;19.25;;;;;;;;4977872;28;45532;-77
2023/04/17 06:12:59;;;;;;;;;22.00;21.00;;;;;;;;4984483;28;45465;-77
2023/04/17 06:15:25;;;;;;;;;25.00;23.25;;;;;;;;4974191;28;45598;-77
2023/04/17 06:17:50;;;;;;;;;27.50;26.00;;;;;;;;4975559;28;45317;-77
2023/04/17 06:20:15;;;;;;;;;24.75;22.75;;;;;;;;4975414;28;45341;-77
2023/04/17 06:22:43;;;;;;;;;27.25;26.75;;;;;;;;4975138;28;45422;-76
2023/04/17 06:25:08;;;;;;;;;25.00;23.50;;;;;;;;4975274;28;45517;-77
2023/04/17 06:27:33;;;;;;;;;24.50;21.50;;;;;;;;4974587;28;45512;-77
2023/04/17 06:29:59;;;;;;;;;24.75;22.75;;;;;;;;4975125;28;45297;-77
2023/04/17 06:32:24;;;;;;;;;25.00;22.50;;;;;;;;4975734;28;45496;-78
2023/04/17 06:34:49;;;;;;;;;31.00;28.00;;;;;;;;4975291;28;45392;-75
2023/04/17 06:37:15;;;;;;;;;28.00;24.75;;;;;;;;4974974;28;45512;-76
2023/04/17 06:39:40;;;;;;;;;23.00;22.50;;;;;;;;4975418;28;45452;-77
2023/04/17 06:42:05;;;;;;;;;29.25;27.00;;;;;;;;4975407;28;45467;-77
2023/04/17 06:44:30;;;;;;;;;25.00;25.00;;;;;;;;4975143;28;46299;-77
2023/04/17 06:46:57;;;;;;;;;28.00;26.50;;;;;;;;4975286;28;45318;-77
2023/04/17 06:49:22;;;;;;;;;29.50;24.75;;;;;;;;4975044;28;45344;-76
2023/04/17 06:51:48;;;;;;;;;31.50;31.50;;;;;;;;4965653;28;45549;-78
2023/04/17 06:54:13;;;;;;;;;27.00;25.75;;;;;;;;4966210;28;45515;-78
2023/04/17 06:56:39;;;;;;;;;26.75;25.75;;;;;;;;4976335;28;45262;-77
2023/04/17 06:59:05;;;;;;;;;27.25;26.25;;;;;;;;4978483;28;45385;-77
2023/04/17 07:01:30;;;;;;;;;30.00;24.50;;;;;;;;4976999;28;45563;-77
2023/04/17 07:03:55;;;;;;;;;28.00;25.25;;;;;;;;4978359;28;46188;-78
2023/04/17 07:06:22;;;;;;;;;31.25;30.50;;;;;;;;4977992;28;45424;-77
2023/04/17 07:08:47;;;;;;;;;30.00;26.25;;;;;;;;4978383;28;45459;-77
2023/04/17 07:11:12;;;;;;;;;29.50;25.00;;;;;;;;4978574;28;45905;-77
2023/04/17 07:13:37;;;;;;;;;35.50;34.00;;;;;;;;4978117;28;45508;-77
2023/04/17 07:16:04;;;;;;;;;30.00;27.75;;;;;;;;4978235;28;45360;-77
2023/04/17 07:18:30;;;;;;;;;31.50;28.50;;;;;;;;4978153;28;45508;-77
2023/04/17 07:20:55;;;;;;;;;36.00;32.00;;;;;;;;4977883;28;45436;-76
2023/04/17 07:23:20;;;;;;;;;35.50;32.75;;;;;;;;4978156;28;45448;-77
2023/04/17 07:25:46;;;;;;;;;35.75;30.50;;;;;;;;4978418;28;45342;-77
2023/04/17 07:28:11;;;;;;;;;33.50;30.25;;;;;;;;4978369;28;45394;-77
2023/04/17 07:30:36;;;;;;;;;26.00;24.00;;;;;;;;4978207;28;45452;-76
2023/04/17 07:33:01;;;;;;;;;29.50;28.75;;;;;;;;4977585;28;47267;-76
2023/04/17 07:35:27;;;;;;;;;39.00;30.75;;;;;;;;4977792;28;45461;-78
2023/04/17 07:37:52;;;;;;;;;28.50;28.50;;;;;;;;4960445;28;45661;-77
2023/04/17 07:40:18;;;;;;;;;29.00;26.25;;;;;;;;4978083;28;45444;-76
2023/04/17 07:42:43;;;;;;;;;33.00;29.25;;;;;;;;4977853;28;46068;-77
2023/04/17 07:45:09;;;;;;;;;29.50;27.25;;;;;;;;4977743;28;45352;-77
2023/04/17 07:47:34;;;;;;;;;36.50;32.25;;;;;;;;4977970;28;45420;-77
2023/04/17 07:50:00;;;;;;;;;33.00;27.75;;;;;;;;4977281;28;45325;-77
2023/04/17 07:52:26;;;;;;;;;29.75;28.50;;;;;;;;4977729;28;46453;-76
2023/04/17 07:54:51;;;;;;;;;32.25;27.75;;;;;;;;4973132;28;45533;-77
2023/04/17 07:57:17;;;;;;;;;29.50;27.50;;;;;;;;4958370;28;45326;-77
2023/04/17 07:59:42;;;;;;;;;29.25;26.00;;;;;;;;4958348;28;45552;-76
2023/04/17 08:02:07;;;;;;;;;29.00;27.00;;;;;;;;4969924;28;46239;-75
2023/04/17 08:04:32;;;;;;;;;29.00;26.25;;;;;;;;4976581;28;45380;-76
2023/04/17 08:06:58;;;;;;;;;26.75;26.25;;;;;;;;4977296;28;45441;-77
2023/04/17 08:09:23;;;;;;;;;28.50;28.25;;;;;;;;4977165;28;45341;-77
2023/04/17 08:11:48;;;;;;;;;31.25;24.75;;;;;;;;4977385;28;46283;-77
2023/04/17 08:14:15;;;;;;;;;27.25;23.00;;;;;;;;4977168;28;45415;-76
2023/04/17 08:16:40;;;;;;;;;29.50;28.00;;;;;;;;4977599;28;45353;-77
2023/04/17 08:19:05;;;;;;;;;32.50;28.75;;;;;;;;4977459;28;45386;-76
2023/04/17 08:21:31;;;;;;;;;34.25;28.00;;;;;;;;4977095;28;45900;-77
2023/04/17 08:23:56;;;;;;;;;28.50;26.75;;;;;;;;4977600;28;45368;-77
2023/04/17 08:26:21;;;;;;;;;36.25;32.25;;;;;;;;4977192;28;45414;-77
2023/04/17 08:28:46;;;;;;;;;32.75;30.00;;;;;;;;4977422;28;45351;-76
2023/04/17 08:31:12;;;;;;;;;33.50;29.25;;;;;;;;4977376;28;46956;-77
2023/04/17 08:33:37;;;;;;;;;37.50;29.75;;;;;;;;4977753;28;45337;-78
2023/04/17 08:36:03;;;;;;;;;32.25;30.50;;;;;;;;4977983;28;45416;-77
2023/04/17 08:38:30;;;;;;;;;34.50;29.50;;;;;;;;4976385;28;45328;-77
2023/04/17 08:40:57;;;;;;;;;30.75;26.50;;;;;;;;4977956;28;46267;-78
2023/04/17 08:43:22;;;;;;;;;37.00;32.50;;;;;;;;4977976;28;45333;-77
2023/04/17 08:45:52;;;;;;;;;38.00;30.25;;;;;;;;4980048;28;45243;-77
2023/04/17 08:48:17;;;;;;;;;32.00;28.25;;;;;;;;4986300;28;45399;-77
2023/04/17 08:50:45;;;;;;;;;32.75;27.75;;;;;;;;4988371;28;45090;-77
2023/04/17 08:53:10;;;;;;;;;33.00;30.50;;;;;;;;4983633;28;45355;-77
2023/04/17 08:55:36;;;;;;;;;37.50;31.25;;;;;;;;4966402;28;45439;-76
2023/04/17 08:58:02;;;;;;;;;44.00;35.50;;;;;;;;4958218;28;45398;-78
2023/04/17 09:00:38;;;;;;;;;31.00;28.00;;;;;;;;4958456;28;46267;-79
2023/04/17 09:03:04;;;;;;;;;39.50;34.75;;;;;;;;4978207;28;45482;-79
2023/04/17 09:05:32;;;;;;;;;42.75;38.00;;;;;;;;4978230;28;45477;-79
2023/04/17 09:08:14;;;;;;;;;39.75;34.00;;;;;;;;4977991;28;45309;-78
2023/04/17 09:10:39;;;;;;;;;44.00;37.75;;;;;;;;4976944;28;46413;-77
2023/04/17 09:13:05;;;;;;;;;39.00;34.25;;;;;;;;4977039;28;45432;-78
2023/04/17 09:15:31;;;;;;;;;48.00;36.00;;;;;;;;4975546;28;44837;-78
2023/04/17 09:17:57;;;;;;;;;48.00;39.00;;;;;;;;4974663;28;45463;-78
2023/04/17 09:20:22;;;;;;;;;48.25;37.75;;;;;;;;4976274;28;45563;-78
2023/04/17 09:22:47;;;;;;;;;47.50;41.00;;;;;;;;4976986;28;45597;-79
2023/04/17 09:25:16;;;;;;;;;41.50;36.75;;;;;;;;4976969;28;45445;-79
2023/04/17 09:27:41;;;;;;;;;40.75;36.75;;;;;;;;4977599;28;45432;-78
2023/04/17 09:30:06;;;;;;;;;43.25;35.25;;;;;;;;4974883;28;46405;-79
2023/04/17 09:32:32;;;;;;;;;39.25;34.75;;;;;;;;4976913;28;45639;-78
2023/04/17 09:34:59;;;;;;;;;37.00;34.00;;;;;;;;4976112;28;45417;-77
2023/04/17 09:37:24;;;;;;;;;44.00;36.75;;;;;;;;4976441;28;45409;-78
2023/04/17 09:39:59;;;;;;;;;41.50;36.75;;;;;;;;4975081;28;45295;-77
2023/04/17 09:42:24;;;;;;;;;44.50;35.00;;;;;;;;4976224;28;45432;-78
2023/04/17 09:44:50;;;;;;;;;43.00;34.75;;;;;;;;4976171;28;45540;-77
2023/04/17 09:47:16;;;;;;;;;40.50;34.75;;;;;;;;4975590;28;45469;-78
2023/04/17 09:49:44;;;;;;;;;42.00;36.50;;;;;;;;4975784;28;45493;-77
2023/04/17 09:52:10;;;;;;;;;44.75;35.50;;;;;;;;4975482;28;45386;-78
2023/04/17 09:54:38;;;;;;;;;43.50;37.25;;;;;;;;4976895;28;45476;-78
2023/04/17 09:57:07;;;;;;;;;32.25;29.50;;;;;;;;4977908;28;45388;-79
2023/04/17 09:59:32;;;;;;;;;41.50;36.50;;;;;;;;4977674;28;46059;-79
2023/04/17 10:01:59;;;;;;;;;38.75;35.25;;;;;;;;4978245;28;45862;-80
2023/04/17 10:04:25;;;;;;;;;42.50;34.50;;;;;;;;4978054;28;45404;-79
2023/04/17 10:06:50;;;;;;;;;40.00;36.25;;;;;;;;4976201;28;45306;-79
2023/04/17 10:09:15;;;;;;;;;47.50;37.25;;;;;;;;4974329;28;45658;-78
2023/04/17 10:11:42;;;;;;;;;48.00;38.25;;;;;;;;4977186;28;45314;-78
2023/04/17 10:14:17;;;;;;;;;46.50;37.00;;;;;;;;4977154;28;45409;-79
2023/04/17 10:16:42;;;;;;;;;46.75;37.50;;;;;;;;4974318;28;45390;-78
2023/04/17 10:19:27;;;;;;;;;48.50;39.00;;;;;;;;4957109;28;45497;-78
2023/04/17 10:22:11;;;;;;;;;45.75;37.50;;;;;;;;4966481;28;45373;-78
2023/04/17 10:24:36;;;;;;;;;45.25;37.75;;;;;;;;4976213;28;45406;-80
2023/04/17 10:27:21;;;;;;;;;41.75;36.00;;;;;;;;4976238;28;45461;-78
2023/04/17 10:29:56;;;;;;;;;46.25;38.25;;;;;;;;4976952;28;45906;-78
2023/04/17 10:32:27;;;;;;;;;32.25;29.50;;;;;;;;4979664;28;45396;-80
2023/04/17 10:34:54;;;;;;;;;42.25;38.75;;;;;;;;4978368;28;45339;-78
2023/04/17 10:37:21;;;;;;;;;48.00;40.75;;;;;;;;4979335;28;45318;-77
2023/04/17 10:39:48;;;;;;;;;45.50;38.50;;;;;;;;4981598;28;47276;-77
2023/04/17 10:42:16;;;;;;;;;53.50;41.75;;;;;;;;4989404;28;45474;-76
2023/04/17 10:44:43;;;;;;;;;46.50;37.75;;;;;;;;4998565;28;45392;-78
2023/04/17 10:47:09;;;;;;;;;45.50;38.25;;;;;;;;4978498;28;45508;-77
2023/04/17 10:49:51;;;;;;;;;35.00;28.00;;;;;;;;4977773;28;47312;-77
2023/04/17 10:52:31;;;;;;;;;43.25;37.25;;;;;;;;4978250;28;45566;-77
2023/04/17 10:55:16;;;;;;;;;32.25;27.75;;;;;;;;4978054;28;45531;-78
2023/04/17 10:57:50;;;;;;;;;42.50;37.25;;;;;;;;4977371;28;45394;-77
2023/04/17 11:00:16;;;;;;;;;32.00;29.25;;;;;;;;4977718;28;46556;-77
2023/04/17 11:02:46;;;;;;;;;40.00;35.50;;;;;;;;4976967;28;45456;-76
2023/04/17 11:05:11;;;;;;;;;38.25;33.00;;;;;;;;4979113;28;45454;-78
2023/04/17 11:07:36;;;;;;;;;37.00;32.50;;;;;;;;4978685;28;45432;-77
2023/04/17 11:10:05;;;;;;;;;33.25;27.00;;;;;;;;4978035;28;45455;-77
2023/04/17 11:12:31;;;;;;;;;51.50;39.50;;;;;;;;4978227;28;45373;-76
2023/04/17 11:15:02;;;;;;;;;32.25;30.00;;;;;;;;4978558;28;45385;-79
2023/04/17 11:17:28;;;;;;;;;43.50;34.50;;;;;;;;4985373;28;45364;-76
2023/04/17 11:19:53;;;;;;;;;44.00;36.50;;;;;;;;4986391;28;46704;-78
2023/04/17 11:22:20;;;;;;;;;38.50;34.50;;;;;;;;4987831;28;45489;-78
2023/04/17 11:24:45;;;;;;;;;36.00;34.50;;;;;;;;4985233;28;45277;-76
2023/04/17 11:27:10;;;;;;;;;43.25;34.00;;;;;;;;4989782;28;45426;-78
2023/04/17 11:29:35;;;;;;;;;35.25;28.50;;;;;;;;4998149;28;46155;-77
2023/04/17 11:32:01;;;;;;;;;31.00;27.50;;;;;;;;4997890;28;45246;-77
2023/04/17 11:34:26;;;;;;;;;43.50;34.00;;;;;;;;4981260;28;45421;-75
2023/04/17 11:36:59;;;;;;;;;42.25;33.50;;;;;;;;4978088;28;45382;-76
2023/04/17 11:39:25;;;;;;;;;47.75;37.50;;;;;;;;4977337;28;46407;-75
2023/04/17 11:41:51;;;;;;;;;36.75;32.00;;;;;;;;4977360;28;45340;-76
2023/04/17 11:44:17;;;;;;;;;36.75;31.50;;;;;;;;4978145;28;45381;-76
2023/04/17 11:46:42;;;;;;;;;33.75;30.50;;;;;;;;4976695;28;45333;-76
2023/04/17 11:49:07;;;;;;;;;44.50;36.00;;;;;;;;4976796;28;45661;-75
2023/04/17 11:51:33;;;;;;;;;34.75;31.75;;;;;;;;4977850;28;45449;-75
2023/04/17 11:53:58;;;;;;;;;39.25;35.75;;;;;;;;4978031;28;45397;-76
2023/04/17 11:56:33;;;;;;;;;32.50;30.50;;;;;;;;4978156;28;45385;-76
2023/04/17 11:58:58;;;;;;;;;42.25;34.00;;;;;;;;4978226;28;46403;-76
2023/04/17 12:01:25;;;;;;;;;38.50;35.25;;;;;;;;4978287;28;45390;-75
2023/04/17 12:03:51;;;;;;;;;34.00;30.00;;;;;;;;4978915;28;45480;-76
2023/04/17 12:06:16;;;;;;;;;29.75;29.75;;;;;;;;4983032;28;45436;-76
2023/04/17 12:08:49;;;;;;;;;36.25;34.50;;;;;;;;4982269;28;46834;-77
2023/04/17 12:11:34;;;;;;;;;27.75;27.75;;;;;;;;4977215;28;45505;-73
2023/04/17 12:14:00;;;;;;;;;33.25;30.00;;;;;;;;4977475;28;45435;-74
2023/04/17 12:16:26;;;;;;;;;37.25;31.25;;;;;;;;4977484;28;45411;-73
2023/04/17 12:18:51;;;;;;;;;32.25;29.50;;;;;;;;4977097;28;45340;-76
2023/04/17 12:21:18;;;;;;;;;33.50;29.25;;;;;;;;4977129;28;45487;-76
2023/04/17 12:23:43;;;;;;;;;40.75;33.50;;;;;;;;4977145;28;45333;-75
2023/04/17 12:26:09;;;;;;;;;30.50;28.00;;;;;;;;4976978;28;45377;-73
2023/04/17 12:28:34;;;;;;;;;34.75;32.25;;;;;;;;4976639;28;45887;-74
2023/04/17 12:30:59;;;;;;;;;31.75;30.75;;;;;;;;4975955;28;45874;-74
2023/04/17 12:33:25;;;;;;;;;34.75;31.50;;;;;;;;4976859;28;45380;-75
2023/04/17 12:35:50;;;;;;;;;28.25;25.75;;;;;;;;4977037;28;45469;-75
2023/04/17 12:38:16;;;;;;;;;39.50;31.75;;;;;;;;4974979;28;47400;-75
2023/04/17 12:40:42;;;;;;;;;34.00;27.25;;;;;;;;4976736;28;45317;-75
2023/04/17 12:43:10;;;;;;;;;39.50;35.75;;;;;;;;4977176;28;45356;-75
2023/04/17 12:45:36;;;;;;;;;30.25;26.25;;;;;;;;4976734;28;45485;-75
2023/04/17 12:48:01;;;;;;;;;36.25;31.50;;;;;;;;4976708;28;45934;-74
2023/04/17 12:50:26;;;;;;;;;33.50;30.25;;;;;;;;4976698;28;45495;-75
2023/04/17 12:52:51;;;;;;;;;37.25;31.75;;;;;;;;4975694;28;45502;-75
2023/04/17 12:55:17;;;;;;;;;29.25;28.00;;;;;;;;4976567;28;45371;-75
2023/04/17 12:57:42;;;;;;;;;36.00;34.00;;;;;;;;4976557;28;46419;-74
2023/04/17 13:00:08;;;;;;;;;36.75;33.25;;;;;;;;4976348;28;45611;-76
2023/04/17 13:02:33;;;;;;;;;41.50;34.50;;;;;;;;4976404;28;45703;-75
2023/04/17 13:04:58;;;;;;;;;36.00;32.50;;;;;;;;4976393;28;45389;-75
2023/04/17 13:07:24;;;;;;;;;42.25;35.75;;;;;;;;4976326;28;45471;-76
2023/04/17 13:09:49;;;;;;;;;36.75;32.75;;;;;;;;4976324;28;45544;-75
2023/04/17 13:12:15;;;;;;;;;35.00;32.00;;;;;;;;4976712;28;45380;-76
2023/04/17 13:14:40;;;;;;;;;34.50;33.00;;;;;;;;4976129;28;45444;-76
2023/04/17 13:17:06;;;;;;;;;33.75;29.50;;;;;;;;4976348;28;45924;-74
2023/04/17 13:19:32;;;;;;;;;22.00;21.75;;;;;;;;4975024;28;45628;-74
2023/04/17 13:21:57;;;;;;;;;41.00;36.75;;;;;;;;4976142;28;45421;-76
2023/04/17 13:24:22;;;;;;;;;39.75;36.50;;;;;;;;4976544;28;45472;-76
2023/04/17 13:26:47;;;;;;;;;39.00;34.75;;;;;;;;4975126;28;48313;-76
2023/04/17 13:29:13;;;;;;;;;29.25;29.25;;;;;;;;4976328;28;45397;-76
2023/04/17 13:31:38;;;;;;;;;43.50;32.75;;;;;;;;4975106;28;45452;-76
2023/04/17 13:34:03;;;;;;;;;46.75;38.25;;;;;;;;4974616;28;45484;-77
2023/04/17 13:36:28;;;;;;;;;48.75;40.00;;;;;;;;4975074;28;46022;-76
2023/04/17 13:38:53;;;;;;;;;46.25;38.00;;;;;;;;4975956;28;45395;-77
2023/04/17 13:41:19;;;;;;;;;29.25;26.50;;;;;;;;4976161;28;45323;-75
2023/04/17 13:43:44;;;;;;;;;45.50;38.75;;;;;;;;4974727;28;45619;-77
2023/04/17 13:46:14;;;;;;;;;42.75;36.25;;;;;;;;4974487;28;47571;-78
2023/04/17 13:48:40;;;;;;;;;47.00;37.25;;;;;;;;4975719;28;45384;-77
2023/04/17 13:51:05;;;;;;;;;49.75;38.25;;;;;;;;4976434;28;45291;-77
2023/04/17 13:53:30;;;;;;;;;45.50;36.75;;;;;;;;4976103;28;45392;-76
2023/04/17 13:55:56;;;;;;;;;47.25;39.25;;;;;;;;4962776;28;46056;-76
2023/04/17 13:58:21;;;;;;;;;44.00;38.75;;;;;;;;4956305;28;45333;-75
2023/04/17 14:00:47;;;;;;;;;50.50;40.50;;;;;;;;4957618;28;45602;-77
2023/04/17 14:03:12;;;;;;;;;45.50;34.25;;;;;;;;4976167;28;45400;-76
2023/04/17 14:05:37;;;;;;;;;41.00;36.50;;;;;;;;4975078;28;47457;-76
2023/04/17 14:08:03;;;;;;;;;44.75;38.00;;;;;;;;4976120;28;45433;-77
2023/04/17 14:10:28;;;;;;;;;37.50;32.50;;;;;;;;4975431;28;45460;-76
2023/04/17 14:12:53;;;;;;;;;44.25;33.25;;;;;;;;4974978;28;45556;-76
2023/04/17 14:15:18;;;;;;;;;39.75;35.00;;;;;;;;4975194;28;46276;-76
2023/04/17 14:17:43;;;;;;;;;44.25;37.75;;;;;;;;4975740;28;45430;-75